Time;durP1;ratioP1;P1;durP2;ratioP2;P2;SDS_P1;SDS_P2;PMS_P1;PMS_P2;Temp;Humidity;BMP_temperature;BMP_pressure;BME280_temperature;BME280_humidity;BME280_pressure;Samples;Min_cycle;Max_cycle;Signal;HPM_P1;HPM_P2
2022/01/19 00:00:16;;;;;;;80.20;39.35;;;3.40;94.20;;;;;;5017052;28;20026;-74
2022/01/19 00:02:41;;;;;;;75.72;39.65;;;3.50;94.20;;;;;;5012675;28;20021;-72
2022/01/19 00:05:09;;;;;;;80.60;41.97;;;3.50;94.20;;;;;;5016581;28;20483;-76
2022/01/19 00:07:35;;;;;;;92.70;44.70;;;3.50;94.20;;;;;;5015143;28;20045;-75
2022/01/19 00:10:04;;;;;;;87.95;44.05;;;3.50;94.20;;;;;;5016060;28;20029;-75
2022/01/19 00:12:31;;;;;;;84.00;41.88;;;3.60;94.30;;;;;;5015338;28;20556;-74
2022/01/19 00:14:57;;;;;;;85.15;43.20;;;3.60;94.20;;;;;;5015468;28;20164;-73
2022/01/19 00:17:23;;;;;;;73.78;39.95;;;3.60;94.20;;;;;;5013967;28;20030;-77
2022/01/19 00:19:48;;;;;;;77.65;41.42;;;3.60;94.20;;;;;;5013088;28;20637;-77
2022/01/19 00:22:14;;;;;;;75.15;38.53;;;3.60;94.20;;;;;;5009397;28;20033;-75
2022/01/19 00:24:41;;;;;;;76.35;37.85;;;3.60;94.20;;;;;;5013984;28;20034;-75
2022/01/19 00:27:07;;;;;;;81.65;40.10;;;3.70;94.20;;;;;;5015051;28;20151;-76
2022/01/19 00:29:32;;;;;;;75.78;39.22;;;3.70;94.20;;;;;;5016581;28;20064;-76
2022/01/19 00:31:58;;;;;;;79.05;41.10;;;3.70;94.20;;;;;;5015930;28;20134;-76
2022/01/19 00:34:24;;;;;;;78.25;39.30;;;3.70;94.20;;;;;;5015839;28;20036;-75
2022/01/19 00:36:50;;;;;;;77.40;38.75;;;3.60;94.10;;;;;;5013189;28;20072;-74
2022/01/19 00:39:15;;;;;;;75.60;39.95;;;3.70;94.10;;;;;;5014618;28;20034;-75
2022/01/19 00:41:41;;;;;;;70.80;36.95;;;3.70;94.20;;;;;;5015675;28;20033;-75
2022/01/19 00:44:06;;;;;;;74.80;36.42;;;3.60;94.00;;;;;;5015800;28;20531;-74
2022/01/19 00:46:32;;;;;;;69.32;36.63;;;3.60;93.90;;;;;;5015152;28;20469;-76
2022/01/19 00:48:58;;;;;;;69.07;37.72;;;3.60;93.90;;;;;;5014392;28;20542;-72
2022/01/19 00:51:23;;;;;;;64.03;34.25;;;3.50;93.80;;;;;;5015486;28;20034;-73
2022/01/19 00:53:49;;;;;;;66.93;35.20;;;3.50;93.90;;;;;;5015824;28;20049;-73
2022/01/19 00:56:15;;;;;;;65.60;35.67;;;3.50;93.80;;;;;;5014219;28;20045;-75
2022/01/19 00:58:40;;;;;;;70.10;37.60;;;3.50;93.80;;;;;;5013742;28;20033;-78
2022/01/19 01:01:06;;;;;;;70.78;37.13;;;3.50;93.80;;;;;;5014731;28;20038;-73
2022/01/19 01:03:32;;;;;;;74.18;37.88;;;3.40;93.80;;;;;;5012372;28;20033;-77
2022/01/19 01:05:57;;;;;;;78.03;37.67;;;3.40;93.70;;;;;;5015264;28;20030;-76
2022/01/19 01:08:23;;;;;;;64.90;36.85;;;3.30;93.80;;;;;;5013876;28;20312;-77
2022/01/19 01:10:50;;;;;;;67.38;36.33;;;3.30;93.80;;;;;;5013758;28;20056;-76
2022/01/19 01:16:05;;;;;;;70.95;36.03;;;3.30;93.90;;;;;;4991623;28;20546;-74
2022/01/19 01:18:33;;;;;;;62.92;34.22;;;3.30;93.90;;;;;;5013397;28;20048;-74
2022/01/19 01:21:00;;;;;;;67.32;35.50;;;3.30;93.90;;;;;;5014624;28;20042;-76
2022/01/19 01:23:28;;;;;;;88.13;37.65;;;3.20;93.90;;;;;;5013346;28;20478;-74
2022/01/19 01:25:55;;;;;;;67.28;34.85;;;3.20;93.80;;;;;;5012901;28;20668;-78
2022/01/19 01:28:21;;;;;;;59.13;35.10;;;3.20;93.90;;;;;;5014314;28;20052;-77
2022/01/19 01:30:47;;;;;;;58.50;34.47;;;3.10;93.90;;;;;;5010772;28;20045;-76
2022/01/19 01:33:13;;;;;;;56.67;33.60;;;3.10;93.90;;;;;;5014203;28;20912;-78
2022/01/19 01:35:40;;;;;;;66.28;35.22;;;3.10;93.80;;;;;;5015463;28;20600;-73
2022/01/19 01:38:06;;;;;;;57.10;35.03;;;3.10;93.80;;;;;;5014400;28;20120;-75
2022/01/19 01:40:34;;;;;;;56.38;33.10;;;3.10;93.70;;;;;;5012475;28;20037;-72
2022/01/19 01:43:01;;;;;;;53.60;33.17;;;3.10;93.80;;;;;;5014594;28;20477;-74
2022/01/19 01:45:31;;;;;;;54.38;33.22;;;3.10;93.80;;;;;;5008869;28;20419;-74
2022/01/19 01:48:11;;;;;;;70.40;33.45;;;3.00;93.80;;;;;;5015134;28;20160;-75
2022/01/19 01:53:27;;;;;;;47.78;29.20;;;2.90;93.50;;;;;;5013376;28;20047;-75
2022/01/19 01:55:59;;;;;;;40.50;28.83;;;2.80;93.50;;;;;;5015532;28;20048;-73
2022/01/19 01:58:26;;;;;;;46.15;29.33;;;2.80;93.40;;;;;;5015949;28;20040;-75
2022/01/19 02:00:53;;;;;;;35.30;26.98;;;2.80;93.40;;;;;;5016647;28;20489;-73
2022/01/19 02:03:19;;;;;;;130.73;34.33;;;2.60;93.20;;;;;;5018038;28;20066;-75
2022/01/19 02:06:17;;;;;;;45.28;26.77;;;2.60;93.30;;;;;;5016144;28;20030;-75
2022/01/19 02:08:46;;;;;;;37.20;27.35;;;2.60;93.30;;;;;;5015348;28;20037;-75
2022/01/19 02:21:59;;;;;;;34.47;26.27;;;2.40;93.00;;;;;;5015681;28;20044;-75
2022/01/19 02:24:29;;;;;;;34.88;26.35;;;2.30;92.90;;;;;;5010137;28;20261;-78
2022/01/19 02:40:25;;;;;;;32.92;25.30;;;2.40;92.70;;;;;;5016602;28;20467;-74
2022/01/19 02:50:31;;;;;;;34.67;25.87;;;2.50;92.40;;;;;;5016075;28;20362;-75
2022/01/19 02:52:57;;;;;;;32.72;26.60;;;2.50;92.40;;;;;;5015306;28;20722;-72
2022/01/19 02:55:23;;;;;;;36.22;27.98;;;2.60;92.50;;;;;;5013993;28;20030;-76
2022/01/19 02:57:49;;;;;;;33.83;26.20;;;2.50;92.20;;;;;;5012818;28;20041;-73
2022/01/19 03:08:47;;;;;;;34.80;26.20;;;2.60;92.20;;;;;;5014189;28;20095;-74
2022/01/19 03:11:18;;;;;;;34.53;27.25;;;2.60;92.30;;;;;;5017222;28;20025;-74
2022/01/19 03:13:47;;;;;;;37.28;27.30;;;2.60;92.30;;;;;;5009287;28;20030;-73
2022/01/19 03:16:14;;;;;;;37.92;27.30;;;2.70;92.30;;;;;;5012719;28;20354;-74
2022/01/19 03:18:40;;;;;;;38.42;27.10;;;2.70;92.30;;;;;;5017510;28;20092;-73
2022/01/19 03:21:06;;;;;;;38.08;28.58;;;2.70;92.30;;;;;;5016002;28;20037;-76
2022/01/19 03:23:32;;;;;;;33.50;26.77;;;2.70;92.30;;;;;;5018579;28;20255;-73
2022/01/19 03:26:01;;;;;;;36.55;28.25;;;2.80;92.30;;;;;;5012052;28;20043;-74
2022/01/19 03:28:26;;;;;;;39.45;27.02;;;2.80;92.30;;;;;;5016443;28;20041;-78
2022/01/19 03:30:52;;;;;;;35.03;25.70;;;2.80;92.30;;;;;;5016836;28;20385;-74
2022/01/19 03:33:18;;;;;;;34.13;26.67;;;2.80;92.40;;;;;;5016045;28;20064;-76
2022/01/19 03:35:45;;;;;;;38.25;26.67;;;2.80;92.40;;;;;;5016944;28;20049;-75
2022/01/19 03:38:13;;;;;;;37.28;27.25;;;2.80;92.40;;;;;;5014556;28;20103;-76
2022/01/19 03:40:39;;;;;;;36.97;25.88;;;2.90;92.40;;;;;;5007755;28;20033;-75
2022/01/19 03:43:05;;;;;;;38.25;28.80;;;2.90;92.40;;;;;;5014254;28;20029;-76
2022/01/19 03:45:33;;;;;;;40.50;28.08;;;2.90;92.40;;;;;;5014877;28;20552;-74
2022/01/19 03:50:41;;;;;;;42.05;29.85;;;2.90;92.50;;;;;;5015108;28;20038;-75
2022/01/19 03:53:06;;;;;;;38.33;28.60;;;3.00;92.50;;;;;;5014372;28;20036;-74
2022/01/19 03:55:32;;;;;;;45.70;30.50;;;2.90;92.60;;;;;;5017397;28;20025;-74
2022/01/19 03:57:57;;;;;;;46.03;31.30;;;3.10;92.70;;;;;;5016407;28;20033;-75
2022/01/19 04:00:23;;;;;;;51.95;33.00;;;3.10;92.70;;;;;;5011564;28;20033;-75
2022/01/19 04:02:49;;;;;;;46.03;32.30;;;3.20;92.70;;;;;;5015974;28;20034;-74
2022/01/19 04:05:22;;;;;;;57.38;35.65;;;3.20;92.70;;;;;;5010859;28;20912;-74
2022/01/19 04:07:47;;;;;;;49.55;32.28;;;3.30;92.80;;;;;;5013158;28;20053;-75
2022/01/19 04:10:13;;;;;;;54.85;34.10;;;3.30;92.90;;;;;;5016139;28;20331;-79
2022/01/19 04:12:46;;;;;;;52.65;34.72;;;3.30;92.90;;;;;;5013871;28;20033;-74
2022/01/19 04:15:15;;;;;;;54.08;33.60;;;3.40;92.90;;;;;;5012452;28;20090;-75
2022/01/19 04:17:47;;;;;;;50.05;34.47;;;3.40;92.80;;;;;;5013343;28;20041;-75
2022/01/19 04:20:13;;;;;;;51.83;33.40;;;3.50;92.70;;;;;;5015356;28;20049;-76
2022/01/19 04:22:39;;;;;;;47.78;33.05;;;3.50;92.70;;;;;;5014042;28;20409;-75
2022/01/19 04:25:05;;;;;;;54.55;34.47;;;3.50;92.60;;;;;;5011543;28;20178;-75
2022/01/19 04:27:32;;;;;;;51.63;33.67;;;3.50;92.70;;;;;;5015980;28;20106;-77
2022/01/19 04:30:10;;;;;;;52.22;34.22;;;3.50;92.60;;;;;;5010564;28;20037;-74
2022/01/19 04:35:43;;;;;;;47.13;31.77;;;3.60;92.60;;;;;;5008082;28;20655;-74
2022/01/19 05:05:20;;;;;;;43.08;29.83;;;3.70;92.40;;;;;;5015471;28;20346;-74
2022/01/19 05:15:24;;;;;;;38.92;29.58;;;3.80;92.30;;;;;;5012563;28;20049;-74
2022/01/19 05:17:50;;;;;;;40.42;28.75;;;3.70;92.30;;;;;;5006032;28;20042;-76
2022/01/19 05:20:15;;;;;;;45.22;31.15;;;3.80;92.30;;;;;;5010997;28;20041;-77
2022/01/19 05:22:41;;;;;;;37.90;28.73;;;3.80;92.10;;;;;;5006118;28;20036;-74
2022/01/19 05:25:07;;;;;;;41.63;29.88;;;3.80;92.20;;;;;;5009131;28;20029;-75
2022/01/19 05:27:33;;;;;;;45.30;30.35;;;3.80;92.20;;;;;;5013398;28;20057;-74
2022/01/19 05:29:59;;;;;;;41.20;30.85;;;3.80;92.10;;;;;;5016497;28;20095;-74
2022/01/19 05:32:24;;;;;;;42.42;28.55;;;3.80;92.10;;;;;;5012553;28;20022;-76
2022/01/19 05:34:51;;;;;;;39.50;28.13;;;3.80;92.00;;;;;;5010303;28;20089;-74
2022/01/19 05:37:16;;;;;;;38.63;28.90;;;3.80;91.90;;;;;;5010768;28;20037;-73
2022/01/19 05:39:42;;;;;;;43.03;29.17;;;3.80;92.00;;;;;;5012079;28;20429;-75
2022/01/19 05:42:14;;;;;;;41.80;28.98;;;3.80;92.00;;;;;;5006471;28;20029;-75
2022/01/19 05:44:43;;;;;;;40.65;29.60;;;3.80;92.00;;;;;;5024182;28;20053;-72
2022/01/19 05:47:10;;;;;;;41.88;29.17;;;3.80;92.00;;;;;;5011346;28;20041;-75
2022/01/19 05:49:36;;;;;;;40.83;29.80;;;3.80;92.00;;;;;;5015927;28;20030;-74
2022/01/19 05:52:01;;;;;;;38.15;27.45;;;3.80;91.90;;;;;;5016958;28;20487;-75
2022/01/19 05:54:27;;;;;;;43.67;30.33;;;3.80;92.00;;;;;;5015608;28;20512;-73
2022/01/19 05:56:53;;;;;;;37.70;27.77;;;3.80;92.00;;;;;;5015943;28;20472;-74
2022/01/19 05:59:18;;;;;;;38.47;27.55;;;3.90;92.00;;;;;;5007241;28;20428;-79
2022/01/19 06:01:44;;;;;;;41.25;27.90;;;3.80;92.00;;;;;;5010293;28;20041;-77
2022/01/19 06:04:10;;;;;;;39.65;29.00;;;3.90;91.90;;;;;;5010761;28;20026;-77
2022/01/19 06:06:36;;;;;;;37.25;27.40;;;3.80;91.90;;;;;;5011805;28;20384;-76
2022/01/19 06:09:09;;;;;;;38.33;27.85;;;3.90;91.90;;;;;;5006922;28;20052;-73
2022/01/19 06:11:35;;;;;;;42.33;29.55;;;3.90;92.00;;;;;;5011958;28;20038;-72
2022/01/19 06:14:00;;;;;;;38.92;29.75;;;3.90;91.90;;;;;;5009043;28;20352;-73
2022/01/19 06:16:26;;;;;;;42.67;29.00;;;4.00;92.00;;;;;;5009185;28;20085;-76
2022/01/19 06:18:52;;;;;;;38.97;28.50;;;3.90;91.90;;;;;;5013170;28;20045;-71
2022/01/19 06:21:17;;;;;;;37.97;27.70;;;3.90;91.90;;;;;;5016766;28;20468;-71
2022/01/19 06:23:43;;;;;;;44.03;29.65;;;3.90;91.90;;;;;;5025268;28;20112;-71
2022/01/19 06:26:09;;;;;;;39.58;28.17;;;3.90;91.80;;;;;;5033429;28;20137;-72
2022/01/19 06:28:34;;;;;;;38.45;27.77;;;4.00;91.80;;;;;;5015348;28;20354;-71
2022/01/19 06:31:00;;;;;;;39.28;28.15;;;4.00;91.70;;;;;;5014957;28;20030;-72
2022/01/19 06:33:26;;;;;;;40.65;29.45;;;4.00;91.80;;;;;;5012157;28;20493;-76
2022/01/19 06:35:53;;;;;;;39.33;29.88;;;4.00;91.70;;;;;;5014523;28;20048;-78
2022/01/19 06:38:21;;;;;;;38.90;28.73;;;4.00;91.60;;;;;;5015227;28;20092;-77
2022/01/19 06:40:47;;;;;;;38.97;28.65;;;4.00;91.60;;;;;;5016844;28;20294;-73
2022/01/19 06:43:13;;;;;;;37.63;27.70;;;4.00;91.60;;;;;;5009062;28;20033;-75
2022/01/19 06:45:38;;;;;;;40.13;28.92;;;4.00;91.50;;;;;;5018580;28;20386;-75
2022/01/19 06:48:04;;;;;;;40.08;28.35;;;4.00;91.60;;;;;;5011646;28;20072;-76
2022/01/19 06:50:31;;;;;;;35.40;26.63;;;4.00;91.60;;;;;;5009271;28;20131;-74
2022/01/19 06:52:57;;;;;;;39.17;28.33;;;4.10;91.60;;;;;;5013129;28;20037;-75
2022/01/19 06:55:23;;;;;;;38.92;28.73;;;4.00;91.50;;;;;;5017524;28;20452;-76
2022/01/19 06:57:49;;;;;;;37.17;27.73;;;4.00;91.50;;;;;;5016608;28;20081;-74
2022/01/19 07:00:15;;;;;;;41.30;29.45;;;4.00;91.60;;;;;;5016926;28;20037;-75
2022/01/19 07:02:41;;;;;;;40.72;27.75;;;4.00;91.60;;;;;;5017672;28;20049;-74
2022/01/19 07:05:07;;;;;;;36.72;27.90;;;4.10;91.60;;;;;;5013947;28;20082;-76
2022/01/19 07:07:33;;;;;;;42.63;28.33;;;4.10;91.70;;;;;;5016587;28;20048;-71
2022/01/19 07:09:58;;;;;;;40.15;28.38;;;4.10;91.60;;;;;;5008435;28;20116;-71
2022/01/19 07:12:29;;;;;;;38.42;28.25;;;4.10;91.60;;;;;;5014150;28;20036;-74
2022/01/19 07:14:54;;;;;;;37.22;28.13;;;4.10;91.60;;;;;;5027851;28;20370;-70
2022/01/19 07:17:20;;;;;;;40.30;29.23;;;4.10;91.50;;;;;;5028677;28;20149;-69
2022/01/19 07:19:46;;;;;;;35.05;27.30;;;4.10;91.30;;;;;;5031840;28;20053;-69
2022/01/19 07:22:12;;;;;;;38.10;29.13;;;4.10;91.20;;;;;;5033477;28;20037;-69
2022/01/19 07:24:37;;;;;;;39.35;29.42;;;4.10;91.30;;;;;;5030968;28;20033;-69
2022/01/19 07:27:03;;;;;;;39.22;29.30;;;4.20;91.20;;;;;;5032858;28;20038;-70
2022/01/19 07:29:29;;;;;;;39.38;29.58;;;4.10;91.10;;;;;;5033845;28;20033;-69
2022/01/19 07:31:56;;;;;;;38.22;29.45;;;4.20;91.20;;;;;;5032066;28;20076;-69
2022/01/19 07:34:22;;;;;;;41.20;28.90;;;4.10;91.10;;;;;;5029634;28;20048;-70
2022/01/19 07:36:48;;;;;;;35.58;27.45;;;4.20;91.10;;;;;;5030653;28;20064;-69
2022/01/19 07:39:14;;;;;;;41.85;31.27;;;4.20;91.10;;;;;;5033580;28;20087;-70
2022/01/19 07:41:40;;;;;;;37.72;29.20;;;4.20;91.10;;;;;;5015924;28;20034;-69
2022/01/19 07:44:06;;;;;;;35.03;27.42;;;4.20;91.00;;;;;;5028041;28;20045;-71
2022/01/19 07:46:32;;;;;;;34.80;26.80;;;4.20;91.00;;;;;;5013804;28;20044;-70
2022/01/19 07:48:58;;;;;;;37.13;28.13;;;4.20;90.90;;;;;;5019163;28;20038;-70
2022/01/19 07:51:23;;;;;;;38.45;28.38;;;4.20;91.00;;;;;;5016065;28;20036;-69
2022/01/19 07:53:49;;;;;;;37.65;27.88;;;4.30;90.80;;;;;;5031369;28;20297;-69
2022/01/19 07:56:15;;;;;;;38.97;29.42;;;4.30;90.70;;;;;;5032603;28;20025;-69
2022/01/19 07:58:40;;;;;;;39.08;28.73;;;4.30;90.80;;;;;;5027480;28;20041;-69
2022/01/19 08:01:06;;;;;;;36.90;26.95;;;4.30;90.70;;;;;;5024603;28;20471;-70
2022/01/19 08:03:32;;;;;;;36.47;29.35;;;4.30;90.80;;;;;;5014534;28;20045;-71
2022/01/19 08:05:58;;;;;;;36.65;28.35;;;4.30;90.70;;;;;;5016565;28;20072;-70
2022/01/19 08:08:25;;;;;;;38.67;28.23;;;4.30;90.70;;;;;;5010557;28;20389;-70
2022/01/19 08:10:51;;;;;;;37.83;29.48;;;4.40;90.70;;;;;;5013080;28;20026;-71
2022/01/19 08:13:18;;;;;;;36.83;28.23;;;4.40;90.70;;;;;;5015701;28;20028;-70
2022/01/19 08:15:45;;;;;;;39.85;30.20;;;4.40;90.60;;;;;;5007160;28;20030;-70
2022/01/19 08:18:11;;;;;;;38.80;30.42;;;4.40;90.60;;;;;;5015518;28;20030;-71
2022/01/19 08:20:43;;;;;;;39.80;29.50;;;4.40;90.60;;;;;;5014518;28;20033;-71
2022/01/19 08:23:09;;;;;;;39.90;29.25;;;4.40;90.60;;;;;;5010529;28;20274;-71
2022/01/19 08:25:35;;;;;;;41.15;29.98;;;4.40;90.60;;;;;;5015482;28;20044;-73
2022/01/19 08:28:00;;;;;;;41.00;28.70;;;4.40;90.60;;;;;;5010711;28;20046;-71
2022/01/19 08:30:26;;;;;;;36.50;27.60;;;4.50;90.40;;;;;;5014963;28;20068;-72
2022/01/19 08:32:52;;;;;;;40.53;29.23;;;4.50;90.40;;;;;;5011022;28;20040;-71
2022/01/19 08:35:18;;;;;;;38.75;28.98;;;4.50;90.30;;;;;;5010079;28;20037;-71
2022/01/19 08:37:43;;;;;;;37.70;28.80;;;4.50;90.30;;;;;;5008636;28;20080;-73
2022/01/19 08:40:10;;;;;;;42.78;30.38;;;4.50;90.30;;;;;;5013846;28;20080;-72
2022/01/19 08:42:36;;;;;;;42.90;32.47;;;4.50;90.40;;;;;;5011211;28;20033;-73
2022/01/19 08:45:07;;;;;;;54.03;43.10;;;4.50;90.40;;;;;;5009354;28;20041;-72
2022/01/19 08:47:37;;;;;;;47.10;33.92;;;4.50;90.30;;;;;;5009324;28;20472;-71
2022/01/19 08:50:08;;;;;;;43.35;32.65;;;4.50;90.30;;;;;;5012794;28;20152;-71
2022/01/19 08:52:34;;;;;;;45.05;33.63;;;4.60;90.30;;;;;;5008203;28;20036;-72
2022/01/19 08:55:00;;;;;;;44.78;30.67;;;4.60;90.10;;;;;;5014961;28;20022;-73
2022/01/19 08:57:25;;;;;;;40.75;30.08;;;4.60;90.10;;;;;;5012554;28;20038;-72
2022/01/19 08:59:51;;;;;;;44.65;30.40;;;4.60;90.10;;;;;;5010027;28;20389;-72
2022/01/19 09:02:18;;;;;;;43.70;30.98;;;4.60;90.10;;;;;;5012117;28;20381;-70
2022/01/19 09:04:44;;;;;;;40.65;28.35;;;4.60;90.00;;;;;;5010571;28;20144;-71
2022/01/19 09:07:10;;;;;;;42.85;30.98;;;4.60;90.00;;;;;;5006565;28;20385;-73
2022/01/19 09:09:35;;;;;;;43.08;29.13;;;4.60;90.00;;;;;;5003746;28;20026;-72
2022/01/19 09:12:02;;;;;;;41.58;30.55;;;4.60;89.90;;;;;;5007926;28;20037;-72
2022/01/19 09:14:28;;;;;;;46.45;31.40;;;4.70;90.00;;;;;;5016168;28;20034;-71
2022/01/19 09:16:54;;;;;;;50.22;33.95;;;4.70;89.90;;;;;;5010212;28;20568;-74
2022/01/19 09:19:20;;;;;;;48.80;34.15;;;4.70;89.90;;;;;;5011395;28;20124;-74
2022/01/19 09:21:48;;;;;;;53.15;34.33;;;4.70;90.00;;;;;;5014399;28;20056;-74
2022/01/19 09:24:13;;;;;;;50.08;32.33;;;4.70;89.90;;;;;;5010562;28;20481;-75
2022/01/19 09:26:39;;;;;;;44.67;31.35;;;4.70;89.90;;;;;;5011675;28;20204;-73
2022/01/19 09:29:05;;;;;;;48.15;31.95;;;4.70;89.80;;;;;;5013797;28;20305;-73
2022/01/19 09:31:33;;;;;;;48.22;31.52;;;4.80;89.80;;;;;;5014073;28;20056;-75
2022/01/19 09:34:09;;;;;;;45.25;30.25;;;4.80;89.80;;;;;;5015354;28;20057;-73
2022/01/19 09:36:44;;;;;;;43.97;30.20;;;4.80;89.80;;;;;;5013325;28;20505;-74
2022/01/19 09:39:10;;;;;;;52.45;31.45;;;4.80;89.80;;;;;;5010998;28;20048;-73
2022/01/19 09:41:36;;;;;;;47.22;32.15;;;4.80;89.90;;;;;;5011789;28;20153;-71
2022/01/19 09:44:02;;;;;;;48.63;31.75;;;4.80;89.90;;;;;;5015046;28;20030;-74
2022/01/19 09:46:29;;;;;;;48.60;30.20;;;4.80;89.90;;;;;;5015014;28;20385;-73
2022/01/19 09:48:56;;;;;;;49.13;30.83;;;4.90;89.80;;;;;;5003567;28;20046;-74
2022/01/19 09:51:22;;;;;;;44.17;30.45;;;4.90;89.80;;;;;;5006482;28;20033;-74
2022/01/19 09:53:49;;;;;;;44.45;32.05;;;5.00;89.90;;;;;;5013816;28;20373;-73
2022/01/19 09:56:16;;;;;;;50.60;31.52;;;5.00;89.80;;;;;;5014446;28;20494;-74
2022/01/19 09:58:42;;;;;;;47.05;30.38;;;5.00;89.70;;;;;;5014757;28;20038;-73
2022/01/19 10:01:08;;;;;;;49.60;31.77;;;5.10;89.70;;;;;;5013049;28;20056;-72
2022/01/19 10:03:34;;;;;;;45.10;30.67;;;5.10;89.50;;;;;;5012887;28;20057;-73
2022/01/19 10:06:10;;;;;;;49.22;31.15;;;5.10;89.50;;;;;;5009083;28;20064;-72
2022/01/19 10:08:42;;;;;;;47.25;30.75;;;5.10;89.40;;;;;;5009985;28;20046;-70
2022/01/19 10:17:09;;;;;;;45.67;31.98;;;5.20;89.00;;;;;;5016255;28;20056;-72
2022/01/19 10:19:50;;;;;;;48.03;31.52;;;5.20;89.00;;;;;;5011186;28;20039;-72
2022/01/19 10:22:18;;;;;;;52.35;32.45;;;5.20;89.00;;;;;;5014340;28;20037;-73
2022/01/19 10:24:51;;;;;;;45.83;30.95;;;5.20;89.00;;;;;;5016165;28;20507;-71
2022/01/19 10:27:18;;;;;;;46.50;31.27;;;5.20;89.00;;;;;;5016531;28;20057;-71
2022/01/19 10:29:44;;;;;;;50.10;32.83;;;5.30;89.00;;;;;;5018265;28;20034;-75
2022/01/19 10:32:10;;;;;;;47.28;32.20;;;5.20;89.00;;;;;;5016307;28;20049;-73
2022/01/19 10:34:35;;;;;;;53.97;34.55;;;5.20;89.00;;;;;;5018642;28;20223;-73
2022/01/19 10:37:03;;;;;;;53.05;33.15;;;5.20;89.10;;;;;;5017156;28;20073;-72
2022/01/19 10:39:49;;;;;;;50.70;33.60;;;5.30;89.10;;;;;;5019147;28;20061;-72
2022/01/19 10:42:20;;;;;;;54.05;34.90;;;5.20;89.10;;;;;;5011758;28;20034;-74
2022/01/19 10:44:47;;;;;;;55.05;37.03;;;5.30;89.30;;;;;;5010076;28;20034;-75
2022/01/19 10:47:15;;;;;;;54.05;34.38;;;5.30;89.30;;;;;;5017181;28;20089;-70
2022/01/19 10:49:56;;;;;;;61.33;36.45;;;5.30;89.20;;;;;;5012539;28;20036;-71
2022/01/19 10:52:37;;;;;;;60.22;36.40;;;5.40;89.30;;;;;;5017167;28;20124;-72
2022/01/19 10:55:07;;;;;;;57.25;35.15;;;5.30;89.30;;;;;;5016338;28;20033;-75
2022/01/19 10:57:35;;;;;;;54.20;36.63;;;5.40;89.30;;;;;;5018512;28;20080;-74
2022/01/19 11:00:17;;;;;;;60.03;38.85;;;5.40;89.40;;;;;;5017700;28;20083;-73
2022/01/19 11:02:44;;;;;;;54.65;37.25;;;5.50;89.30;;;;;;5017165;28;20048;-73
2022/01/19 11:05:10;;;;;;;56.10;36.45;;;5.60;89.20;;;;;;5011511;28;20533;-73
2022/01/19 11:07:36;;;;;;;57.53;37.05;;;5.60;89.30;;;;;;5019192;28;20049;-72
2022/01/19 11:12:43;;;;;;;66.60;47.38;;;5.80;88.90;;;;;;5012013;28;20490;-73
2022/01/19 11:15:10;;;;;;;74.80;55.13;;;5.80;88.80;;;;;;5016900;28;20483;-76
2022/01/19 11:17:36;;;;;;;59.67;43.13;;;6.00;88.70;;;;;;5016872;28;20045;-73
2022/01/19 11:20:08;;;;;;;65.35;42.40;;;6.10;88.30;;;;;;5026726;28;20049;-71
2022/01/19 11:22:41;;;;;;;60.15;39.83;;;6.20;88.20;;;;;;5020947;28;20112;-71
2022/01/19 11:25:20;;;;;;;54.80;37.30;;;6.30;87.80;;;;;;5019327;28;20042;-74
2022/01/19 11:27:47;;;;;;;60.03;37.85;;;6.40;87.60;;;;;;5007961;28;20053;-77
2022/01/19 11:30:25;;;;;;;52.50;33.97;;;6.40;86.90;;;;;;5007796;28;20469;-75
2022/01/19 11:33:12;;;;;;;56.75;37.40;;;6.40;86.80;;;;;;5009671;28;20531;-78
2022/01/19 11:35:39;;;;;;;60.05;39.15;;;6.40;87.30;;;;;;5007244;28;20048;-74
2022/01/19 11:38:26;;;;;;;58.08;39.97;;;6.40;87.00;;;;;;5008599;28;20167;-78
2022/01/19 11:40:52;;;;;;;56.80;37.00;;;6.40;87.10;;;;;;5009515;28;20076;-71
2022/01/19 11:43:25;;;;;;;55.33;37.58;;;6.50;87.00;;;;;;5010648;28;20108;-74
2022/01/19 11:45:51;;;;;;;54.85;36.85;;;6.50;86.90;;;;;;5007469;28;20028;-77
2022/01/19 11:48:24;;;;;;;50.05;36.40;;;6.50;86.90;;;;;;5007961;28;20045;-77
2022/01/19 11:50:51;;;;;;;57.45;38.80;;;6.50;87.00;;;;;;5009968;28;20642;-73
2022/01/19 11:53:18;;;;;;;56.63;37.72;;;6.50;87.00;;;;;;5007147;28;20579;-74
2022/01/19 11:56:08;;;;;;;57.80;36.22;;;6.40;87.20;;;;;;5009731;28;20124;-72
2022/01/19 11:58:35;;;;;;;59.20;36.60;;;6.50;87.40;;;;;;5008650;28;20030;-76
2022/01/19 12:01:03;;;;;;;55.65;38.17;;;6.50;87.40;;;;;;5008722;28;20931;-71
2022/01/19 12:03:32;;;;;;;60.08;37.58;;;6.60;87.60;;;;;;5011523;28;20033;-75
2022/01/19 12:05:58;;;;;;;56.05;36.00;;;6.60;87.40;;;;;;5007449;28;20111;-73
2022/01/19 12:08:29;;;;;;;58.50;36.90;;;6.60;87.30;;;;;;5006688;28;20128;-74
2022/01/19 12:10:58;;;;;;;61.88;39.42;;;6.70;87.10;;;;;;5008082;28;20164;-72
2022/01/19 12:13:33;;;;;;;60.17;37.72;;;6.70;86.90;;;;;;5009175;28;20036;-77
2022/01/19 12:16:13;;;;;;;60.03;37.50;;;6.70;86.90;;;;;;5008534;28;20041;-72
2022/01/19 12:18:51;;;;;;;58.58;36.67;;;6.70;86.70;;;;;;5008306;28;20455;-73
2022/01/19 12:21:20;;;;;;;57.30;38.17;;;6.80;86.80;;;;;;5007898;28;20051;-75
2022/01/19 12:23:47;;;;;;;56.85;36.53;;;6.90;86.80;;;;;;5008633;28;20045;-75
2022/01/19 12:26:13;;;;;;;60.42;37.20;;;6.90;86.60;;;;;;5006240;28;20033;-77
2022/01/19 12:28:51;;;;;;;59.78;36.85;;;6.90;86.40;;;;;;5006645;28;20090;-72
2022/01/19 12:31:26;;;;;;;60.25;36.78;;;6.90;86.60;;;;;;5009845;28;20053;-73
2022/01/19 12:34:09;;;;;;;;;;;6.90;86.60;;;;;;5015830;28;20477;-75
2022/01/19 12:36:49;;;;;;;61.22;38.65;;;6.90;86.50;;;;;;5013113;28;20354;-74
2022/01/19 12:39:28;;;;;;;58.97;37.15;;;6.90;86.70;;;;;;5014689;28;20033;-72
2022/01/19 12:42:20;;;;;;;61.90;37.83;;;7.00;86.60;;;;;;5010217;28;20489;-78
2022/01/19 12:44:54;;;;;;;57.10;36.00;;;7.00;86.80;;;;;;5017845;28;20045;-79
2022/01/19 12:47:29;;;;;;;;;;;7.00;86.70;;;;;;5014444;28;20954;-70
2022/01/19 12:50:03;;;;;;;61.13;36.20;;;7.10;86.60;;;;;;5015790;28;19914;-73
2022/01/19 12:52:32;;;;;;;65.53;36.83;;;7.20;86.20;;;;;;5015317;28;20038;-75
2022/01/19 12:55:11;;;;;;;61.72;36.65;;;7.30;85.80;;;;;;5015355;28;20433;-71
2022/01/19 12:57:37;;;;;;;58.67;36.22;;;7.20;86.00;;;;;;5007877;28;20385;-70
2022/01/19 13:00:08;;;;;;;59.38;35.85;;;7.10;85.90;;;;;;5008670;28;20033;-72
2022/01/19 13:02:34;;;;;;;60.15;36.35;;;7.10;86.10;;;;;;5013450;28;20534;-70
2022/01/19 13:05:05;;;;;;;54.53;35.10;;;7.10;86.40;;;;;;5015780;28;20032;-72
2022/01/19 13:07:34;;;;;;;62.97;36.08;;;7.10;86.40;;;;;;5014287;28;20116;-71
2022/01/19 13:10:17;;;;;;;58.80;36.63;;;7.10;86.20;;;;;;5012813;28;20034;-70
2022/01/19 13:15:44;;;;;;;56.55;34.35;;;7.30;86.10;;;;;;5015051;28;20032;-73
2022/01/19 13:18:16;;;;;;;58.55;36.42;;;7.40;85.70;;;;;;5010167;28;20167;-72
2022/01/19 13:20:53;;;;;;;55.60;35.83;;;7.40;85.90;;;;;;5014869;28;20551;-72
2022/01/19 13:23:20;;;;;;;55.92;35.83;;;7.40;85.70;;;;;;5017559;28;20045;-69
2022/01/19 13:25:55;;;;;;;62.42;36.22;;;7.40;85.90;;;;;;5014044;28;20030;-70
2022/01/19 13:28:32;;;;;;;62.08;36.65;;;7.30;85.70;;;;;;5023280;28;20099;-69
2022/01/19 13:31:20;;;;;;;55.65;33.97;;;7.30;85.70;;;;;;5024770;28;20025;-74
2022/01/19 13:33:57;;;;;;;60.05;35.80;;;7.30;85.80;;;;;;5014614;28;20050;-73
2022/01/19 13:36:28;;;;;;;63.47;36.05;;;7.30;85.90;;;;;;5014081;28;20104;-72
2022/01/19 13:38:55;;;;;;;58.22;35.00;;;7.20;86.00;;;;;;5015471;28;20069;-72
2022/01/19 13:41:21;;;;;;;55.92;36.60;;;7.20;86.20;;;;;;5014512;28;20614;-73
2022/01/19 13:43:48;;;;;;;57.17;35.58;;;7.30;86.20;;;;;;5014347;28;20048;-70
2022/01/19 13:46:21;;;;;;;62.63;37.58;;;7.30;86.30;;;;;;5014015;28;20053;-73
2022/01/19 13:49:00;;;;;;;60.87;37.10;;;7.30;86.10;;;;;;5016708;28;20033;-73
2022/01/19 13:51:26;;;;;;;63.20;37.03;;;7.40;86.30;;;;;;5016096;28;20053;-76
2022/01/19 13:53:54;;;;;;;60.33;37.30;;;7.40;86.00;;;;;;5018750;28;20385;-72
2022/01/19 13:56:30;;;;;;;59.42;35.10;;;7.40;86.20;;;;;;5016273;28;20380;-75
2022/01/19 13:59:06;;;;;;;61.53;35.78;;;7.30;86.20;;;;;;5018983;28;20751;-70
2022/01/19 14:01:49;;;;;;;61.58;37.13;;;7.30;86.40;;;;;;5013746;28;20037;-71
2022/01/19 14:04:15;;;;;;;58.90;35.97;;;7.40;86.30;;;;;;5021348;28;20030;-69
2022/01/19 14:06:43;;;;;;;61.83;36.08;;;7.30;86.40;;;;;;5028533;28;20026;-69
2022/01/19 14:09:15;;;;;;;65.95;37.83;;;7.30;86.40;;;;;;5031187;28;20036;-69
2022/01/19 14:11:59;;;;;;;60.63;35.38;;;7.20;86.60;;;;;;5030368;28;20143;-70
2022/01/19 14:14:36;;;;;;;61.45;35.47;;;7.20;86.90;;;;;;5028489;28;20033;-69
2022/01/19 14:17:05;;;;;;;58.35;35.47;;;7.20;86.80;;;;;;5031917;28;20358;-70
2022/01/19 14:19:44;;;;;;;56.10;35.22;;;7.20;86.70;;;;;;5030889;28;20363;-69
2022/01/19 14:22:10;;;;;;;60.72;35.25;;;7.20;86.70;;;;;;5031734;28;20034;-69